This is the latest recevied weather packets stored in our database for station/object WC4PEM-10. If no packets are shown the sender has not sent any weather packets the latest 1 day(s).
| Time | Temp. | Humidity | Pressure | Rain* | Wind** | Luminosity | Snow |
|---|---|---|---|---|---|---|---|
| 1777985488 | 21.67° C | 87% | 1015.5 hPa | 0 mm | 3.58 m/s, 99° | - | - |
| 1777985188 | 21.11° C | 90% | 1015.5 hPa | 0 mm | 3.58 m/s, 101° | - | - |
| 1777985080 | 20.56° C | 91% | 1015.7 hPa | 0 mm | 3.13 m/s, 99° | - | - |
| 1777984946 | 20° C | 92% | 1015.6 hPa | 0 mm | 2.68 m/s, 68° | - | - |
| 1777984888 | 20.56° C | 91% | 1015.7 hPa | 0 mm | 3.13 m/s, 99° | - | - |
| 1777984718 | 20° C | 92% | 1015.6 hPa | 0 mm | 2.68 m/s, 68° | - | - |
| 1777984594 | 20° C | 94% | 1015.4 hPa | 0 mm | 2.24 m/s, 80° | - | - |
| 1777984588 | 20° C | 92% | 1015.6 hPa | 0 mm | 2.68 m/s, 68° | - | - |
| 1777984516 | 20° C | 94% | 1015.4 hPa | 0 mm | 2.24 m/s, 80° | - | - |
| 1777984295 | 19.44° C | 95% | 1015.7 hPa | 0 mm | 2.24 m/s, 83° | - | - |
| 1777984288 | 20° C | 94% | 1015.4 hPa | 0 mm | 2.24 m/s, 80° | - | - |
| 1777983988 | 19.44° C | 95% | 1015.7 hPa | 0 mm | 2.24 m/s, 83° | - | - |
| 1777983688 | 19.44° C | 96% | 1015.8 hPa | 0 mm | 1.79 m/s, 126° | - | - |
| 1777983462 | 18.33° C | 98% | 1015.7 hPa | 0 mm | 1.79 m/s, 67° | - | - |
| 1777983388 | 18.89° C | 97% | 1015.8 hPa | 0 mm | 2.24 m/s, 108° | - | - |
| 1777983215 | 18.89° C | 97% | 1015.7 hPa | 0 mm | 2.24 m/s, 51° | - | - |
| 1777983089 | 18.89° C | 97% | 1015.7 hPa | 0 mm | 2.24 m/s, 51° | - | - |
| 1777982788 | 18.33° C | 98% | 1015.7 hPa | 0 mm | 1.79 m/s, 68° | - | - |
| 1777982780 | 18.33° C | 98% | 1015.7 hPa | 0 mm | 1.79 m/s, 67° | - | - |
| 1777982603 | 17.78° C | 98% | 1015.6 hPa | 0 mm | 1.34 m/s, 51° | - | - |
| 1777982489 | 18.33° C | 98% | 1015.7 hPa | 0 mm | 1.79 m/s, 67° | - | - |
| 1777982189 | 17.78° C | 98% | 1015.6 hPa | 0 mm | 1.34 m/s, 51° | - | - |
| 1777982160 | 17.78° C | 98% | 1015.3 hPa | 0 mm | 1.34 m/s, 86° | - | - |
| 1777981894 | 17.22° C | 97% | 1015.3 hPa | 0 mm | 1.34 m/s, 111° | - | - |
| 1777981889 | 17.78° C | 98% | 1015.3 hPa | 0 mm | 1.34 m/s, 86° | - | - |
* Rain latest hour (hover to see other rain measurements)
** Current wind speed in m/s (hover to see current wind gust speed)